SWA267 KPHX-KBUR
Flight info
| Callsign | SWA267 |
|---|---|
| Flight time | 1h 6m |
| Altitude | 28000 |
| Route | KEENS3 HRRBR PHRED THRNE4 |
| Aircraft | B737/M-SDE2E3FGHIRWXY/LB1 |
Departure
| Time | 2026-05-05 02:01 |
|---|---|
| Airport | Phoenix Sky Harbor International Airport (KPHX) |
Arrival
| Time | 2026-05-05 03:07 |
|---|---|
| Airport | Hollywood Burbank/Bob Hope Airport (KBUR) |
| Time | Latitude | Longitude | Altitude | Speed | Heading |
|---|---|---|---|---|---|
| 2026-05-05 01:35 | 33.43440 | -111.99873 | 1123 ft | 0 kts | 272° |
| 2026-05-05 01:51 | 33.43438 | -111.99849 | 1120 ft | 4 kts | 287° |
| 2026-05-05 01:52 | 33.43426 | -111.99821 | 1114 ft | 4 kts | 316° |
| 2026-05-05 01:52 | 33.43404 | -111.99804 | 1114 ft | 4 kts | 345° |
| 2026-05-05 01:52 | 33.43384 | -111.99801 | 1120 ft | 4 kts | 359° |
| 2026-05-05 01:53 | 33.43359 | -111.99803 | 1119 ft | 4 kts | 11° |
| 2026-05-05 01:53 | 33.43334 | -111.99810 | 1114 ft | 4 kts | 19° |
| 2026-05-05 01:53 | 33.43309 | -111.99822 | 1122 ft | 4 kts | 28° |
| 2026-05-05 01:53 | 33.43288 | -111.99840 | 1117 ft | 4 kts | 54° |
| 2026-05-05 01:54 | 33.43281 | -111.99853 | 1114 ft | 0 kts | 87° |
| 2026-05-05 01:57 | 33.43281 | -111.99850 | 1114 ft | 1 kts | 87° |
| 2026-05-05 01:57 | 33.43279 | -111.99827 | 1120 ft | 4 kts | 111° |
| 2026-05-05 01:58 | 33.43250 | -111.99806 | 1117 ft | 6 kts | 158° |
| 2026-05-05 01:58 | 33.43220 | -111.99773 | 1120 ft | 7 kts | 115° |
| 2026-05-05 01:58 | 33.43214 | -111.99710 | 1126 ft | 8 kts | 90° |
| 2026-05-05 01:58 | 33.43213 | -111.99634 | 1119 ft | 10 kts | 90° |
| 2026-05-05 01:59 | 33.43213 | -111.99528 | 1121 ft | 15 kts | 90° |
| 2026-05-05 01:59 | 33.43213 | -111.99400 | 1126 ft | 14 kts | 91° |
| 2026-05-05 01:59 | 33.43143 | -111.99346 | 1133 ft | 13 kts | 179° |
| 2026-05-05 01:59 | 33.43103 | -111.99422 | 1134 ft | 13 kts | 271° |
| 2026-05-05 02:00 | 33.43104 | -111.99563 | 1131 ft | 34 kts | 270° |
| 2026-05-05 02:00 | 33.43104 | -112.00142 | 1131 ft | 103 kts | 270° |
| 2026-05-05 02:00 | 33.43108 | -112.01226 | 1224 ft | 147 kts | 271° |
| 2026-05-05 02:00 | 33.43112 | -112.02522 | 1714 ft | 161 kts | 267° |
| 2026-05-05 02:01 | 33.43073 | -112.03812 | 2447 ft | 155 kts | 268° |
| 2026-05-05 02:01 | 33.43029 | -112.05091 | 3187 ft | 158 kts | 268° |
| 2026-05-05 02:01 | 33.42978 | -112.06537 | 3637 ft | 192 kts | 266° |
| 2026-05-05 02:01 | 33.42648 | -112.08219 | 3916 ft | 225 kts | 248° |
| 2026-05-05 02:02 | 33.42071 | -112.09981 | 4429 ft | 243 kts | 248° |
| 2026-05-05 02:02 | 33.41427 | -112.12010 | 5066 ft | 259 kts | 249° |
| 2026-05-05 02:02 | 33.40794 | -112.14045 | 6176 ft | 259 kts | 247° |
| 2026-05-05 02:02 | 33.40166 | -112.16076 | 7311 ft | 259 kts | 247° |
| 2026-05-05 02:03 | 33.39549 | -112.18072 | 8363 ft | 262 kts | 248° |
| 2026-05-05 02:03 | 33.39180 | -112.20234 | 9342 ft | 271 kts | 267° |
| 2026-05-05 02:03 | 33.39383 | -112.22489 | 10381 ft | 275 kts | 275° |
| 2026-05-05 02:03 | 33.39725 | -112.24831 | 10844 ft | 300 kts | 276° |
| 2026-05-05 02:04 | 33.40124 | -112.27398 | 11067 ft | 328 kts | 277° |
| 2026-05-05 02:04 | 33.40555 | -112.30153 | 11665 ft | 341 kts | 277° |
| 2026-05-05 02:04 | 33.40990 | -112.32954 | 12551 ft | 344 kts | 277° |
| 2026-05-05 02:04 | 33.41422 | -112.35774 | 13548 ft | 345 kts | 276° |
| 2026-05-05 02:05 | 33.41845 | -112.38576 | 14368 ft | 348 kts | 276° |
| 2026-05-05 02:05 | 33.42271 | -112.41437 | 15203 ft | 351 kts | 276° |
| 2026-05-05 02:05 | 33.42698 | -112.44317 | 16057 ft | 353 kts | 277° |
| 2026-05-05 02:05 | 33.43126 | -112.47218 | 16936 ft | 354 kts | 277° |
| 2026-05-05 02:06 | 33.43554 | -112.50125 | 17764 ft | 356 kts | 277° |
| 2026-05-05 02:06 | 33.43985 | -112.53058 | 18525 ft | 359 kts | 277° |
| 2026-05-05 02:06 | 33.44419 | -112.56018 | 19181 ft | 363 kts | 276° |
| 2026-05-05 02:06 | 33.44855 | -112.59007 | 19834 ft | 367 kts | 276° |
| 2026-05-05 02:07 | 33.45162 | -112.62038 | 20510 ft | 366 kts | 269° |
| 2026-05-05 02:07 | 33.45210 | -112.65084 | 21184 ft | 367 kts | 265° |
| 2026-05-05 02:07 | 33.45190 | -112.68109 | 21833 ft | 369 kts | 265° |
| 2026-05-05 02:07 | 33.45180 | -112.71193 | 22444 ft | 373 kts | 265° |
| 2026-05-05 02:08 | 33.45200 | -112.74314 | 23044 ft | 376 kts | 265° |
| 2026-05-05 02:08 | 33.45237 | -112.77448 | 23605 ft | 378 kts | 264° |
| 2026-05-05 02:08 | 33.45337 | -112.80618 | 24052 ft | 386 kts | 270° |
| 2026-05-05 02:08 | 33.45829 | -112.83814 | 24517 ft | 393 kts | 275° |
| 2026-05-05 02:09 | 33.46447 | -112.87017 | 25012 ft | 396 kts | 275° |
| 2026-05-05 02:09 | 33.47086 | -112.90188 | 25516 ft | 397 kts | 275° |
| 2026-05-05 02:09 | 33.47727 | -112.93386 | 26163 ft | 393 kts | 275° |
| 2026-05-05 02:09 | 33.48350 | -112.96554 | 26890 ft | 389 kts | 275° |
| 2026-05-05 02:10 | 33.48954 | -112.99693 | 27567 ft | 386 kts | 274° |
| 2026-05-05 02:10 | 33.49547 | -113.02840 | 27845 ft | 388 kts | 274° |
| 2026-05-05 02:10 | 33.50133 | -113.05967 | 27863 ft | 381 kts | 274° |
| 2026-05-05 02:10 | 33.50709 | -113.09067 | 27876 ft | 383 kts | 274° |
| 2026-05-05 02:11 | 33.51284 | -113.12194 | 27926 ft | 385 kts | 272° |
| 2026-05-05 02:11 | 33.51861 | -113.15328 | 27889 ft | 386 kts | 272° |
| 2026-05-05 02:11 | 33.52444 | -113.18503 | 27896 ft | 394 kts | 273° |
| 2026-05-05 02:11 | 33.53029 | -113.21703 | 27891 ft | 402 kts | 273° |
| 2026-05-05 02:12 | 33.53633 | -113.25001 | 27890 ft | 409 kts | 273° |
| 2026-05-05 02:12 | 33.54871 | -113.31718 | 27872 ft | 413 kts | 273° |
| 2026-05-05 02:12 | 33.55491 | -113.35071 | 27871 ft | 412 kts | 273° |
| 2026-05-05 02:13 | 33.56108 | -113.38427 | 27875 ft | 412 kts | 273° |
| 2026-05-05 02:13 | 33.56722 | -113.41781 | 27874 ft | 412 kts | 273° |
| 2026-05-05 02:13 | 33.57332 | -113.45129 | 28028 ft | 411 kts | 272° |
| 2026-05-05 02:14 | 33.58544 | -113.51785 | 28033 ft | 411 kts | 272° |
| 2026-05-05 02:14 | 33.59791 | -113.58472 | 28027 ft | 410 kts | 272° |
| 2026-05-05 02:15 | 33.61041 | -113.65141 | 28027 ft | 410 kts | 272° |
| 2026-05-05 02:15 | 33.62282 | -113.71805 | 28011 ft | 409 kts | 272° |
| 2026-05-05 02:16 | 33.63518 | -113.78472 | 27991 ft | 409 kts | 272° |
| 2026-05-05 02:16 | 33.64134 | -113.81802 | 27971 ft | 408 kts | 272° |
| 2026-05-05 02:16 | 33.64745 | -113.85122 | 27950 ft | 407 kts | 271° |
| 2026-05-05 02:16 | 33.65067 | -113.88440 | 27927 ft | 393 kts | 261° |
| 2026-05-05 02:17 | 33.64996 | -113.91657 | 27925 ft | 391 kts | 260° |
| 2026-05-05 02:17 | 33.64910 | -113.94920 | 27912 ft | 391 kts | 260° |
| 2026-05-05 02:17 | 33.64836 | -113.98178 | 27892 ft | 391 kts | 260° |
| 2026-05-05 02:17 | 33.64774 | -114.01446 | 27878 ft | 391 kts | 260° |
| 2026-05-05 02:18 | 33.64720 | -114.04713 | 27877 ft | 391 kts | 261° |
| 2026-05-05 02:18 | 33.64669 | -114.07968 | 27906 ft | 391 kts | 261° |
| 2026-05-05 02:18 | 33.64617 | -114.11235 | 27895 ft | 392 kts | 261° |
| 2026-05-05 02:18 | 33.64709 | -114.14527 | 27881 ft | 398 kts | 266° |
| 2026-05-05 02:19 | 33.65008 | -114.17845 | 27882 ft | 400 kts | 268° |
| 2026-05-05 02:19 | 33.65364 | -114.21121 | 27875 ft | 401 kts | 268° |
| 2026-05-05 02:19 | 33.65735 | -114.24433 | 27872 ft | 401 kts | 268° |
| 2026-05-05 02:19 | 33.66100 | -114.27743 | 27878 ft | 400 kts | 268° |
| 2026-05-05 02:20 | 33.66451 | -114.31051 | 27880 ft | 400 kts | 268° |
| 2026-05-05 02:20 | 33.66791 | -114.34365 | 27890 ft | 400 kts | 267° |
| 2026-05-05 02:20 | 33.67124 | -114.37674 | 27884 ft | 399 kts | 267° |
| 2026-05-05 02:20 | 33.67451 | -114.40982 | 27898 ft | 399 kts | 267° |
| 2026-05-05 02:21 | 33.67774 | -114.44280 | 27898 ft | 398 kts | 267° |
| 2026-05-05 02:21 | 33.68094 | -114.47574 | 27886 ft | 398 kts | 267° |
| 2026-05-05 02:21 | 33.68410 | -114.50830 | 27880 ft | 397 kts | 267° |
| 2026-05-05 02:21 | 33.68728 | -114.54120 | 27883 ft | 396 kts | 267° |
| 2026-05-05 02:22 | 33.69046 | -114.57408 | 27887 ft | 396 kts | 267° |
| 2026-05-05 02:22 | 33.69361 | -114.60687 | 27907 ft | 396 kts | 267° |
| 2026-05-05 02:22 | 33.69676 | -114.63974 | 27897 ft | 396 kts | 267° |
| 2026-05-05 02:22 | 33.69991 | -114.67265 | 27892 ft | 397 kts | 267° |
| 2026-05-05 02:23 | 33.70306 | -114.70557 | 27889 ft | 397 kts | 267° |
| 2026-05-05 02:23 | 33.70615 | -114.73805 | 27886 ft | 397 kts | 267° |
| 2026-05-05 02:23 | 33.70928 | -114.77100 | 27889 ft | 397 kts | 267° |
| 2026-05-05 02:23 | 33.71240 | -114.80388 | 27888 ft | 397 kts | 267° |
| 2026-05-05 02:24 | 33.71551 | -114.83683 | 27888 ft | 397 kts | 267° |
| 2026-05-05 02:24 | 33.71861 | -114.86974 | 27897 ft | 397 kts | 267° |
| 2026-05-05 02:24 | 33.72170 | -114.90278 | 27887 ft | 398 kts | 267° |
| 2026-05-05 02:24 | 33.72482 | -114.93584 | 27875 ft | 398 kts | 267° |
| 2026-05-05 02:25 | 33.72791 | -114.96886 | 27878 ft | 398 kts | 267° |
| 2026-05-05 02:25 | 33.73097 | -115.00183 | 27874 ft | 398 kts | 267° |
| 2026-05-05 02:25 | 33.73399 | -115.03444 | 27892 ft | 398 kts | 267° |
| 2026-05-05 02:25 | 33.73704 | -115.06744 | 27878 ft | 398 kts | 267° |
| 2026-05-05 02:26 | 33.74010 | -115.10051 | 27883 ft | 398 kts | 267° |
| 2026-05-05 02:26 | 33.74314 | -115.13353 | 27880 ft | 398 kts | 267° |
| 2026-05-05 02:26 | 33.74617 | -115.16663 | 27863 ft | 398 kts | 267° |
| 2026-05-05 02:26 | 33.74932 | -115.19967 | 27865 ft | 398 kts | 267° |
| 2026-05-05 02:27 | 33.75268 | -115.23264 | 27861 ft | 398 kts | 267° |
| 2026-05-05 02:27 | 33.75609 | -115.26548 | 27864 ft | 397 kts | 267° |
| 2026-05-05 02:27 | 33.75949 | -115.29841 | 27869 ft | 397 kts | 267° |
| 2026-05-05 02:27 | 33.76280 | -115.33088 | 27871 ft | 397 kts | 267° |
| 2026-05-05 02:28 | 33.76614 | -115.36382 | 27866 ft | 397 kts | 267° |
| 2026-05-05 02:28 | 33.76945 | -115.39675 | 27890 ft | 398 kts | 268° |
| 2026-05-05 02:28 | 33.77280 | -115.42982 | 27878 ft | 398 kts | 268° |
| 2026-05-05 02:28 | 33.77621 | -115.46284 | 27870 ft | 399 kts | 268° |
| 2026-05-05 02:29 | 33.77968 | -115.49594 | 27876 ft | 399 kts | 268° |
| 2026-05-05 02:29 | 33.78312 | -115.52903 | 27875 ft | 399 kts | 268° |
| 2026-05-05 02:29 | 33.78652 | -115.56206 | 27864 ft | 399 kts | 268° |
| 2026-05-05 02:29 | 33.78988 | -115.59475 | 27861 ft | 399 kts | 268° |
| 2026-05-05 02:30 | 33.79321 | -115.62784 | 27856 ft | 398 kts | 268° |
| 2026-05-05 02:30 | 33.79642 | -115.66077 | 27885 ft | 397 kts | 268° |
| 2026-05-05 02:30 | 33.79957 | -115.69375 | 27891 ft | 397 kts | 268° |
| 2026-05-05 02:30 | 33.80275 | -115.72669 | 27883 ft | 398 kts | 268° |
| 2026-05-05 02:31 | 33.80596 | -115.75975 | 27873 ft | 398 kts | 268° |
| 2026-05-05 02:31 | 33.80916 | -115.79286 | 27875 ft | 399 kts | 268° |
| 2026-05-05 02:31 | 33.81235 | -115.82570 | 27865 ft | 389 kts | 268° |
| 2026-05-05 02:31 | 33.81555 | -115.85680 | 27849 ft | 371 kts | 267° |
| 2026-05-05 02:32 | 33.81871 | -115.88698 | 27545 ft | 361 kts | 267° |
| 2026-05-05 02:32 | 33.82169 | -115.91648 | 27137 ft | 353 kts | 268° |
| 2026-05-05 02:32 | 33.82460 | -115.94557 | 26672 ft | 347 kts | 268° |
| 2026-05-05 02:32 | 33.82746 | -115.97418 | 26194 ft | 343 kts | 268° |
| 2026-05-05 02:33 | 33.83029 | -116.00255 | 25663 ft | 340 kts | 268° |
| 2026-05-05 02:33 | 33.83308 | -116.03063 | 25163 ft | 337 kts | 269° |
| 2026-05-05 02:33 | 33.83587 | -116.05856 | 24662 ft | 335 kts | 269° |
| 2026-05-05 02:33 | 33.83863 | -116.08631 | 24166 ft | 333 kts | 270° |
| 2026-05-05 02:34 | 33.84137 | -116.11392 | 23681 ft | 333 kts | 270° |
| 2026-05-05 02:34 | 33.84385 | -116.14116 | 23179 ft | 330 kts | 269° |
| 2026-05-05 02:34 | 33.84598 | -116.16853 | 22637 ft | 327 kts | 269° |
| 2026-05-05 02:34 | 33.84800 | -116.19572 | 22116 ft | 326 kts | 269° |
| 2026-05-05 02:35 | 33.85001 | -116.22292 | 21615 ft | 327 kts | 269° |
| 2026-05-05 02:35 | 33.85207 | -116.25040 | 21104 ft | 332 kts | 270° |
| 2026-05-05 02:35 | 33.85416 | -116.27822 | 20609 ft | 339 kts | 270° |
| 2026-05-05 02:35 | 33.85633 | -116.30675 | 20067 ft | 346 kts | 270° |
| 2026-05-05 02:36 | 33.85853 | -116.33565 | 19499 ft | 346 kts | 270° |
| 2026-05-05 02:36 | 33.86073 | -116.36402 | 18971 ft | 345 kts | 271° |
| 2026-05-05 02:36 | 33.86336 | -116.39275 | 18392 ft | 346 kts | 272° |
| 2026-05-05 02:36 | 33.86619 | -116.42144 | 17797 ft | 345 kts | 272° |
| 2026-05-05 02:37 | 33.86900 | -116.44993 | 17233 ft | 343 kts | 272° |
| 2026-05-05 02:37 | 33.87175 | -116.47833 | 16695 ft | 341 kts | 272° |
| 2026-05-05 02:37 | 33.87444 | -116.50652 | 16176 ft | 338 kts | 272° |
| 2026-05-05 02:37 | 33.87732 | -116.53449 | 15798 ft | 333 kts | 275° |
| 2026-05-05 02:38 | 33.88140 | -116.56127 | 15614 ft | 329 kts | 277° |
| 2026-05-05 02:38 | 33.88594 | -116.58814 | 15423 ft | 326 kts | 275° |
| 2026-05-05 02:38 | 33.89032 | -116.61473 | 15201 ft | 323 kts | 275° |
| 2026-05-05 02:38 | 33.89456 | -116.64128 | 15024 ft | 326 kts | 276° |
| 2026-05-05 02:39 | 33.89881 | -116.66816 | 14812 ft | 326 kts | 276° |
| 2026-05-05 02:39 | 33.90307 | -116.69494 | 14670 ft | 325 kts | 275° |
| 2026-05-05 02:39 | 33.90732 | -116.72154 | 14456 ft | 322 kts | 274° |
| 2026-05-05 02:39 | 33.91148 | -116.74781 | 14301 ft | 317 kts | 275° |
| 2026-05-05 02:40 | 33.91559 | -116.77382 | 14150 ft | 315 kts | 275° |
| 2026-05-05 02:40 | 33.91961 | -116.79931 | 14001 ft | 315 kts | 277° |
| 2026-05-05 02:40 | 33.92375 | -116.82566 | 13837 ft | 324 kts | 276° |
| 2026-05-05 02:40 | 33.92795 | -116.85242 | 13648 ft | 326 kts | 277° |
| 2026-05-05 02:41 | 33.93217 | -116.87917 | 13486 ft | 324 kts | 277° |
| 2026-05-05 02:41 | 33.93635 | -116.90574 | 13300 ft | 322 kts | 277° |
| 2026-05-05 02:41 | 33.94049 | -116.93214 | 13127 ft | 321 kts | 277° |
| 2026-05-05 02:41 | 33.94461 | -116.95843 | 12958 ft | 319 kts | 278° |
| 2026-05-05 02:42 | 33.94957 | -116.98477 | 12555 ft | 326 kts | 282° |
| 2026-05-05 02:42 | 33.95551 | -117.01076 | 12174 ft | 324 kts | 283° |
| 2026-05-05 02:42 | 33.96151 | -117.03662 | 11771 ft | 317 kts | 283° |
| 2026-05-05 02:42 | 33.96725 | -117.06196 | 11388 ft | 311 kts | 283° |
| 2026-05-05 02:43 | 33.97282 | -117.08689 | 11007 ft | 305 kts | 283° |
| 2026-05-05 02:43 | 33.97813 | -117.11096 | 10940 ft | 290 kts | 282° |
| 2026-05-05 02:43 | 33.98316 | -117.13386 | 10850 ft | 276 kts | 282° |
| 2026-05-05 02:43 | 33.98803 | -117.15612 | 10800 ft | 273 kts | 282° |
| 2026-05-05 02:44 | 33.99287 | -117.17825 | 10738 ft | 273 kts | 282° |
| 2026-05-05 02:44 | 33.99777 | -117.20051 | 10742 ft | 277 kts | 283° |
| 2026-05-05 02:44 | 34.00328 | -117.22290 | 10697 ft | 279 kts | 284° |
| 2026-05-05 02:44 | 34.00894 | -117.24494 | 10645 ft | 280 kts | 284° |
| 2026-05-05 02:45 | 34.01471 | -117.26731 | 10588 ft | 279 kts | 284° |
| 2026-05-05 02:45 | 34.02045 | -117.28965 | 10513 ft | 278 kts | 284° |
| 2026-05-05 02:45 | 34.02615 | -117.31192 | 10476 ft | 278 kts | 284° |
| 2026-05-05 02:45 | 34.03180 | -117.33422 | 10415 ft | 278 kts | 285° |
| 2026-05-05 02:46 | 34.03743 | -117.35646 | 10345 ft | 277 kts | 285° |
| 2026-05-05 02:46 | 34.04305 | -117.37869 | 10285 ft | 277 kts | 285° |
| 2026-05-05 02:46 | 34.04866 | -117.40090 | 10237 ft | 276 kts | 285° |
| 2026-05-05 02:46 | 34.05424 | -117.42303 | 10177 ft | 276 kts | 285° |
| 2026-05-05 02:47 | 34.05977 | -117.44496 | 10065 ft | 277 kts | 285° |
| 2026-05-05 02:47 | 34.06533 | -117.46705 | 10020 ft | 275 kts | 285° |
| 2026-05-05 02:47 | 34.07085 | -117.48900 | 10017 ft | 272 kts | 284° |
| 2026-05-05 02:47 | 34.07572 | -117.51092 | 10006 ft | 269 kts | 280° |
| 2026-05-05 02:48 | 34.07930 | -117.53310 | 10008 ft | 271 kts | 278° |
| 2026-05-05 02:48 | 34.08263 | -117.55554 | 9999 ft | 271 kts | 278° |
| 2026-05-05 02:48 | 34.08594 | -117.57794 | 10000 ft | 271 kts | 278° |
| 2026-05-05 02:48 | 34.08930 | -117.60034 | 10001 ft | 272 kts | 278° |
| 2026-05-05 02:49 | 34.09267 | -117.62259 | 10001 ft | 272 kts | 278° |
| 2026-05-05 02:49 | 34.09617 | -117.64552 | 10000 ft | 272 kts | 278° |
| 2026-05-05 02:49 | 34.09957 | -117.66772 | 10000 ft | 272 kts | 278° |
| 2026-05-05 02:49 | 34.10303 | -117.69018 | 9998 ft | 272 kts | 278° |
| 2026-05-05 02:50 | 34.10648 | -117.71261 | 10004 ft | 272 kts | 278° |
| 2026-05-05 02:50 | 34.10994 | -117.73508 | 10001 ft | 272 kts | 278° |
| 2026-05-05 02:50 | 34.11341 | -117.75758 | 10010 ft | 272 kts | 278° |
| 2026-05-05 02:50 | 34.11687 | -117.78003 | 10002 ft | 272 kts | 278° |
| 2026-05-05 02:51 | 34.12032 | -117.80247 | 10003 ft | 272 kts | 278° |
| 2026-05-05 02:51 | 34.12376 | -117.82488 | 10008 ft | 271 kts | 278° |
| 2026-05-05 02:51 | 34.12725 | -117.84763 | 10014 ft | 271 kts | 278° |
| 2026-05-05 02:51 | 34.13056 | -117.86941 | 9853 ft | 275 kts | 278° |
| 2026-05-05 02:52 | 34.13398 | -117.89215 | 9498 ft | 274 kts | 279° |
| 2026-05-05 02:52 | 34.13738 | -117.91457 | 9191 ft | 269 kts | 278° |
| 2026-05-05 02:52 | 34.14070 | -117.93657 | 8888 ft | 264 kts | 278° |
| 2026-05-05 02:52 | 34.14393 | -117.95830 | 8583 ft | 261 kts | 278° |
| 2026-05-05 02:53 | 34.14712 | -117.97972 | 8285 ft | 259 kts | 279° |
| 2026-05-05 02:53 | 34.15029 | -118.00093 | 8020 ft | 254 kts | 279° |
| 2026-05-05 02:53 | 34.15125 | -118.02163 | 7922 ft | 242 kts | 265° |
| 2026-05-05 02:53 | 34.15007 | -118.04154 | 7832 ft | 235 kts | 264° |
| 2026-05-05 02:54 | 34.14897 | -118.06074 | 7735 ft | 232 kts | 264° |
| 2026-05-05 02:54 | 34.14782 | -118.08033 | 7646 ft | 239 kts | 264° |
| 2026-05-05 02:54 | 34.14659 | -118.10056 | 7574 ft | 244 kts | 264° |
| 2026-05-05 02:54 | 34.14531 | -118.12118 | 7428 ft | 249 kts | 264° |
| 2026-05-05 02:55 | 34.14399 | -118.14202 | 7209 ft | 249 kts | 264° |
| 2026-05-05 02:55 | 34.14246 | -118.16306 | 7081 ft | 256 kts | 262° |
| 2026-05-05 02:55 | 34.14025 | -118.18457 | 6944 ft | 261 kts | 262° |
| 2026-05-05 02:55 | 34.13788 | -118.20640 | 6796 ft | 263 kts | 261° |
| 2026-05-05 02:56 | 34.13549 | -118.22825 | 6649 ft | 262 kts | 261° |
| 2026-05-05 02:56 | 34.13310 | -118.24998 | 6505 ft | 261 kts | 261° |
| 2026-05-05 02:56 | 34.13072 | -118.27145 | 6355 ft | 262 kts | 262° |
| 2026-05-05 02:56 | 34.12828 | -118.29321 | 6184 ft | 262 kts | 261° |
| 2026-05-05 02:57 | 34.12585 | -118.31496 | 6048 ft | 261 kts | 261° |
| 2026-05-05 02:57 | 34.12347 | -118.33645 | 5875 ft | 254 kts | 261° |
| 2026-05-05 02:57 | 34.12120 | -118.35724 | 5710 ft | 246 kts | 262° |
| 2026-05-05 02:57 | 34.11897 | -118.37753 | 5557 ft | 241 kts | 262° |
| 2026-05-05 02:58 | 34.11670 | -118.39729 | 5392 ft | 235 kts | 261° |
| 2026-05-05 02:58 | 34.11446 | -118.41681 | 5242 ft | 236 kts | 261° |
| 2026-05-05 02:58 | 34.11224 | -118.43620 | 5120 ft | 236 kts | 262° |
| 2026-05-05 02:58 | 34.10996 | -118.45585 | 4975 ft | 237 kts | 262° |
| 2026-05-05 02:59 | 34.10901 | -118.47566 | 4820 ft | 237 kts | 270° |
| 2026-05-05 02:59 | 34.10931 | -118.49562 | 4659 ft | 237 kts | 270° |
| 2026-05-05 02:59 | 34.10969 | -118.51547 | 4479 ft | 234 kts | 270° |
| 2026-05-05 02:59 | 34.11012 | -118.53480 | 4324 ft | 227 kts | 270° |
| 2026-05-05 03:00 | 34.11056 | -118.55358 | 4147 ft | 220 kts | 270° |
| 2026-05-05 03:00 | 34.11098 | -118.57158 | 4038 ft | 216 kts | 270° |
| 2026-05-05 03:00 | 34.11145 | -118.58921 | 3995 ft | 212 kts | 271° |
| 2026-05-05 03:00 | 34.11186 | -118.60661 | 3987 ft | 208 kts | 270° |
| 2026-05-05 03:01 | 34.11232 | -118.62389 | 4015 ft | 204 kts | 270° |
| 2026-05-05 03:01 | 34.11422 | -118.64055 | 3972 ft | 197 kts | 293° |
| 2026-05-05 03:01 | 34.12325 | -118.65258 | 4010 ft | 198 kts | 329° |
| 2026-05-05 03:01 | 34.13653 | -118.65738 | 3953 ft | 199 kts | 346° |
| 2026-05-05 03:02 | 34.14988 | -118.66024 | 3858 ft | 193 kts | 355° |
| 2026-05-05 03:02 | 34.16245 | -118.65564 | 3799 ft | 192 kts | 38° |
| 2026-05-05 03:02 | 34.17222 | -118.64378 | 3851 ft | 208 kts | 49° |
| 2026-05-05 03:02 | 34.18172 | -118.63064 | 3856 ft | 209 kts | 53° |
| 2026-05-05 03:03 | 34.19023 | -118.61653 | 3838 ft | 206 kts | 57° |
| 2026-05-05 03:03 | 34.19804 | -118.60248 | 3833 ft | 201 kts | 66° |
| 2026-05-05 03:03 | 34.20023 | -118.58611 | 3845 ft | 198 kts | 94° |
| 2026-05-05 03:03 | 34.20032 | -118.56948 | 3839 ft | 199 kts | 94° |
| 2026-05-05 03:04 | 34.20025 | -118.55266 | 3738 ft | 202 kts | 95° |
| 2026-05-05 03:04 | 34.20003 | -118.53544 | 3469 ft | 205 kts | 94° |
| 2026-05-05 03:04 | 34.19981 | -118.51857 | 3204 ft | 198 kts | 96° |
| 2026-05-05 03:04 | 34.19958 | -118.50231 | 2931 ft | 195 kts | 93° |
| 2026-05-05 03:05 | 34.19927 | -118.48598 | 2662 ft | 194 kts | 91° |
| 2026-05-05 03:05 | 34.19917 | -118.46990 | 2412 ft | 187 kts | 92° |
| 2026-05-05 03:05 | 34.19898 | -118.45526 | 2182 ft | 163 kts | 92° |
| 2026-05-05 03:05 | 34.19882 | -118.44236 | 1967 ft | 145 kts | 94° |
| 2026-05-05 03:06 | 34.19866 | -118.43067 | 1765 ft | 135 kts | 92° |
| 2026-05-05 03:06 | 34.19851 | -118.41927 | 1645 ft | 136 kts | 93° |
| 2026-05-05 03:06 | 34.19838 | -118.40792 | 1429 ft | 133 kts | 95° |
| 2026-05-05 03:06 | 34.19824 | -118.39692 | 1255 ft | 134 kts | 94° |
| 2026-05-05 03:07 | 34.19809 | -118.38560 | 1058 ft | 134 kts | 94° |
| 2026-05-05 03:07 | 34.19798 | -118.37448 | 845 ft | 129 kts | 95° |
| 2026-05-05 03:07 | 34.19782 | -118.36423 | 710 ft | 102 kts | 89° |
| 2026-05-05 03:07 | 34.19777 | -118.35947 | 700 ft | 39 kts | 91° |
| 2026-05-05 03:08 | 34.19775 | -118.35632 | 697 ft | 34 kts | 91° |
| 2026-05-05 03:08 | 34.19768 | -118.35419 | 689 ft | 14 kts | 95° |
| 2026-05-05 03:08 | 34.19761 | -118.35336 | 694 ft | 8 kts | 96° |
| 2026-05-05 03:08 | 34.19756 | -118.35281 | 692 ft | 6 kts | 95° |
| 2026-05-05 03:09 | 34.19750 | -118.35248 | 687 ft | 0 kts | 123° |
| 2026-05-05 03:09 | 34.19744 | -118.35243 | 688 ft | 2 kts | 152° |
| 2026-05-05 03:09 | 34.19724 | -118.35240 | 688 ft | 5 kts | 179° |
| 2026-05-05 03:09 | 34.19690 | -118.35241 | 691 ft | 3 kts | 181° |
| 2026-05-05 03:10 | 34.19678 | -118.35241 | 691 ft | 1 kts | 181° |
| 2026-05-05 03:10 | 34.19676 | -118.35241 | 691 ft | 0 kts | 181° |